createdAt,value
2018-07-09T00:00:24.986Z,17.15
2018-07-09T00:01:24.957Z,17.06
2018-07-09T00:02:24.922Z,17.11
2018-07-09T00:03:24.900Z,17.09
2018-07-09T00:04:24.868Z,17.08
2018-07-09T00:05:24.820Z,17.06
2018-07-09T00:06:24.793Z,17.06
2018-07-09T00:07:24.751Z,17.09
2018-07-09T00:08:24.725Z,16.91
2018-07-09T00:09:24.690Z,16.94
2018-07-09T00:10:24.652Z,16.94
2018-07-09T00:11:25.204Z,16.96
2018-07-09T00:12:24.586Z,16.97
2018-07-09T00:13:24.553Z,17.01
2018-07-09T00:14:24.553Z,16.90
2018-07-09T00:15:24.527Z,16.87
2018-07-09T00:16:24.457Z,16.87
2018-07-09T00:17:24.424Z,16.84
2018-07-09T00:18:24.400Z,16.83
2018-07-09T00:19:24.367Z,16.71
2018-07-09T00:20:24.327Z,16.71
2018-07-09T00:21:24.316Z,16.79
2018-07-09T00:22:24.532Z,16.69
2018-07-09T00:23:24.232Z,16.72
2018-07-09T00:24:24.201Z,16.71
2018-07-09T00:25:24.546Z,16.71
2018-07-09T00:26:24.132Z,16.79
2018-07-09T00:27:24.130Z,16.72
2018-07-09T00:28:24.072Z,16.81
2018-07-09T00:29:24.038Z,16.72
2018-07-09T00:30:24.001Z,16.68
2018-07-09T00:31:23.991Z,16.71
2018-07-09T00:32:24.015Z,16.69
2018-07-09T00:33:23.907Z,16.65
2018-07-09T00:34:23.871Z,16.60
2018-07-09T00:35:23.875Z,16.58
2018-07-09T00:36:23.808Z,16.65
2018-07-09T00:37:23.782Z,16.58
2018-07-09T00:38:23.740Z,16.54
2018-07-09T00:39:23.711Z,16.54
2018-07-09T00:40:23.670Z,16.53
2018-07-09T00:41:23.648Z,16.64
2018-07-09T00:42:23.612Z,16.60
2018-07-09T00:43:24.190Z,16.56
2018-07-09T00:44:23.540Z,16.60
2018-07-09T00:45:23.510Z,16.56
2018-07-09T00:46:23.476Z,16.56
2018-07-09T00:47:23.443Z,16.51
2018-07-09T00:48:23.409Z,16.51
2018-07-09T00:49:23.376Z,16.50
2018-07-09T00:50:23.349Z,16.47
2018-07-09T00:51:23.348Z,16.46
2018-07-09T00:52:23.282Z,16.47
2018-07-09T00:53:23.253Z,16.46
2018-07-09T00:54:23.219Z,16.50
2018-07-09T00:55:23.182Z,16.51
2018-07-09T00:56:23.146Z,16.47
2018-07-09T00:57:23.112Z,16.49
2018-07-09T00:58:23.080Z,16.47
2018-07-09T00:59:23.054Z,16.38
2018-07-09T01:00:23.017Z,16.41
2018-07-09T01:01:22.984Z,16.36
2018-07-09T01:02:22.979Z,16.33
2018-07-09T01:03:22.917Z,16.33
2018-07-09T01:04:22.882Z,16.31
2018-07-09T01:05:22.857Z,16.35
2018-07-09T01:06:23.179Z,16.24
2018-07-09T01:07:23.186Z,16.24
2018-07-09T01:08:22.774Z,16.13
2018-07-09T01:09:22.721Z,16.15
2018-07-09T01:10:22.684Z,16.08
2018-07-09T01:11:22.658Z,16.05
2018-07-09T01:12:22.623Z,16.05
2018-07-09T01:13:22.585Z,16.04
2018-07-09T01:14:22.578Z,15.95
2018-07-09T01:15:22.522Z,15.94
2018-07-09T01:16:22.506Z,15.90
2018-07-09T01:17:22.484Z,15.94
2018-07-09T01:18:22.422Z,15.97
2018-07-09T01:19:22.398Z,15.90
2018-07-09T01:20:22.400Z,15.95
2018-07-09T01:21:22.322Z,15.97
2018-07-09T01:22:22.290Z,15.92
2018-07-09T01:23:22.534Z,15.83
2018-07-09T01:24:22.235Z,15.84
2018-07-09T01:25:22.194Z,15.82
2018-07-09T01:26:22.155Z,15.73
2018-07-09T01:27:22.129Z,15.82
2018-07-09T01:28:22.851Z,15.70
2018-07-09T01:29:22.102Z,15.70
2018-07-09T01:30:22.031Z,15.70
2018-07-09T01:31:21.995Z,15.65
2018-07-09T01:32:21.960Z,15.72
2018-07-09T01:33:21.935Z,15.64
2018-07-09T01:34:21.893Z,15.64
2018-07-09T01:35:21.859Z,15.57
2018-07-09T01:36:21.825Z,15.61
2018-07-09T01:37:21.798Z,15.61
2018-07-09T01:38:21.778Z,15.72
2018-07-09T01:39:21.731Z,15.75
2018-07-09T01:40:21.700Z,15.62
2018-07-09T01:41:21.675Z,15.61
2018-07-09T01:42:21.631Z,15.59
2018-07-09T01:43:21.603Z,15.55
2018-07-09T01:44:21.559Z,15.54
2018-07-09T01:45:21.577Z,15.64
2018-07-09T01:46:21.495Z,15.47
2018-07-09T01:47:21.461Z,15.59
2018-07-09T01:48:21.433Z,15.55
2018-07-09T01:49:21.404Z,15.52
2018-07-09T01:50:21.363Z,15.47
2018-07-09T01:51:21.498Z,15.46
2018-07-09T01:52:21.522Z,15.47
2018-07-09T01:53:21.261Z,15.42
2018-07-09T01:54:21.236Z,15.46
2018-07-09T01:55:21.225Z,15.46
2018-07-09T01:56:21.161Z,15.36
2018-07-09T01:57:21.160Z,15.47
2018-07-09T01:58:21.120Z,15.44
2018-07-09T01:59:21.066Z,15.44
2018-07-09T02:00:21.048Z,15.36
2018-07-09T02:01:21.006Z,15.36
2018-07-09T02:02:20.985Z,15.36
2018-07-09T02:03:20.933Z,15.39
2018-07-09T02:04:20.897Z,15.40
2018-07-09T02:05:20.865Z,15.40
2018-07-09T02:06:20.832Z,15.28
2018-07-09T02:07:20.813Z,15.27
2018-07-09T02:08:20.767Z,15.29
2018-07-09T02:09:20.732Z,15.29
2018-07-09T02:10:20.703Z,15.25
2018-07-09T02:11:20.663Z,15.22
2018-07-09T02:12:20.634Z,15.25
2018-07-09T02:13:20.597Z,15.17
2018-07-09T02:14:20.566Z,15.21
2018-07-09T02:15:20.563Z,15.22
2018-07-09T02:16:20.499Z,15.24
2018-07-09T02:17:20.467Z,15.18
2018-07-09T02:18:20.439Z,15.21
2018-07-09T02:19:20.410Z,15.19
2018-07-09T02:20:20.382Z,15.19
2018-07-09T02:21:20.344Z,15.19
2018-07-09T02:22:20.315Z,15.22
2018-07-09T02:23:20.263Z,15.18
2018-07-09T02:24:20.248Z,15.15
2018-07-09T02:25:20.197Z,15.19
2018-07-09T02:26:20.164Z,15.21
2018-07-09T02:27:20.132Z,15.18
2018-07-09T02:28:20.099Z,15.22
2018-07-09T02:29:20.063Z,15.22
2018-07-09T02:30:20.031Z,15.24
2018-07-09T02:31:20.004Z,15.24
2018-07-09T02:32:19.961Z,15.15
2018-07-09T02:33:19.961Z,15.18
2018-07-09T02:34:19.900Z,15.21
2018-07-09T02:35:19.862Z,15.21
2018-07-09T02:36:19.871Z,15.18
2018-07-09T02:37:19.795Z,15.14
2018-07-09T02:38:19.768Z,15.18
2018-07-09T02:39:19.732Z,15.22
2018-07-09T02:40:19.700Z,15.14
2018-07-09T02:41:19.687Z,15.14
2018-07-09T02:42:19.640Z,15.03
2018-07-09T02:43:19.613Z,15.10
2018-07-09T02:44:19.561Z,15.03
2018-07-09T02:45:19.527Z,15.10
2018-07-09T02:46:19.505Z,15.09
2018-07-09T02:47:19.483Z,15.06
2018-07-09T02:48:19.428Z,15.04
2018-07-09T02:49:19.480Z,15.06
2018-07-09T02:50:19.359Z,14.99
2018-07-09T02:51:19.329Z,15.00
2018-07-09T02:52:19.296Z,15.04
2018-07-09T02:53:19.263Z,14.91
2018-07-09T02:54:19.231Z,14.99
2018-07-09T02:55:19.194Z,14.94
2018-07-09T02:56:19.236Z,15.07
2018-07-09T02:57:19.128Z,14.96
2018-07-09T02:58:19.098Z,14.96
2018-07-09T02:59:19.078Z,14.89
2018-07-09T03:00:19.032Z,14.91
2018-07-09T03:01:19.055Z,14.89
2018-07-09T03:02:18.965Z,14.96
2018-07-09T03:03:18.931Z,14.96
2018-07-09T03:04:18.898Z,14.94
2018-07-09T03:05:18.872Z,14.92
2018-07-09T03:06:18.867Z,14.94
2018-07-09T03:07:18.793Z,14.84
2018-07-09T03:08:18.766Z,14.91
2018-07-09T03:09:18.739Z,14.84
2018-07-09T03:10:18.714Z,14.78
2018-07-09T03:11:18.661Z,14.81
2018-07-09T03:12:18.623Z,14.86
2018-07-09T03:13:18.594Z,14.78
2018-07-09T03:14:18.578Z,14.79
2018-07-09T03:15:18.530Z,14.82
2018-07-09T03:16:18.495Z,14.73
2018-07-09T03:17:18.466Z,14.78
2018-07-09T03:18:18.431Z,14.73
2018-07-09T03:19:18.419Z,14.72
2018-07-09T03:20:18.404Z,14.77
2018-07-09T03:21:18.329Z,14.78
2018-07-09T03:22:18.289Z,14.70
2018-07-09T03:23:18.257Z,14.79
2018-07-09T03:24:18.230Z,14.77
2018-07-09T03:25:18.204Z,14.82
2018-07-09T03:26:18.153Z,14.73
2018-07-09T03:27:18.123Z,14.85
2018-07-09T03:28:18.092Z,14.85
2018-07-09T03:29:18.058Z,14.86
2018-07-09T03:30:18.025Z,14.84
2018-07-09T03:31:17.989Z,14.82
2018-07-09T03:32:17.983Z,14.82
2018-07-09T03:33:17.924Z,14.85
2018-07-09T03:34:17.892Z,14.77
2018-07-09T03:35:17.854Z,14.88
2018-07-09T03:36:17.835Z,14.86
2018-07-09T03:37:17.802Z,14.77
2018-07-09T03:38:17.786Z,14.84
2018-07-09T03:39:17.719Z,14.84
2018-07-09T03:40:17.699Z,14.86
2018-07-09T03:41:17.661Z,14.85
2018-07-09T03:42:17.653Z,14.86
2018-07-09T03:43:17.603Z,14.85
2018-07-09T03:44:17.573Z,14.85
2018-07-09T03:45:17.549Z,14.92
2018-07-09T03:46:17.510Z,14.88
2018-07-09T03:47:17.463Z,14.86
2018-07-09T03:48:17.422Z,14.86
2018-07-09T03:49:17.389Z,14.94
2018-07-09T03:50:17.350Z,14.85
2018-07-09T03:51:17.339Z,14.91
2018-07-09T03:52:17.282Z,14.91
2018-07-09T03:53:17.252Z,14.94
2018-07-09T03:54:17.224Z,14.97
2018-07-09T03:55:17.216Z,14.97
2018-07-09T03:56:17.168Z,14.91
2018-07-09T03:57:17.125Z,14.92
2018-07-09T03:58:17.085Z,14.96
2018-07-09T03:59:17.051Z,14.94
2018-07-09T04:00:17.018Z,14.96
2018-07-09T04:01:17.004Z,14.96
2018-07-09T04:02:16.977Z,14.88
2018-07-09T04:03:16.920Z,15.09
2018-07-09T04:04:16.901Z,14.99
2018-07-09T04:05:16.851Z,15.07
2018-07-09T04:06:16.817Z,15.10
2018-07-09T04:07:16.784Z,15.15
2018-07-09T04:08:16.752Z,15.15
2018-07-09T04:09:17.008Z,15.18
2018-07-09T04:10:16.685Z,15.19
2018-07-09T04:11:16.658Z,15.24
2018-07-09T04:12:16.613Z,15.27
2018-07-09T04:13:16.580Z,15.22
2018-07-09T04:14:16.545Z,15.33
2018-07-09T04:15:16.512Z,15.37
2018-07-09T04:16:16.484Z,15.43
2018-07-09T04:17:16.469Z,15.44
2018-07-09T04:18:16.412Z,15.44
2018-07-09T04:19:16.378Z,15.51
2018-07-09T04:20:16.354Z,15.51
2018-07-09T04:21:16.318Z,15.67
2018-07-09T04:22:16.282Z,15.62
2018-07-09T04:23:16.247Z,15.65
2018-07-09T04:24:16.214Z,15.64
2018-07-09T04:25:16.191Z,15.73
2018-07-09T04:26:16.217Z,15.76
2018-07-09T04:27:16.118Z,15.68
2018-07-09T04:28:16.086Z,15.77
2018-07-09T04:29:16.050Z,15.80
2018-07-09T04:30:16.017Z,16.00
2018-07-09T04:31:15.991Z,15.92
2018-07-09T04:32:15.964Z,16.05
2018-07-09T04:33:15.916Z,16.10
2018-07-09T04:34:16.057Z,16.10
2018-07-09T04:35:15.861Z,16.21
2018-07-09T04:36:15.822Z,16.23
2018-07-09T04:37:15.783Z,16.33
2018-07-09T04:38:15.758Z,16.28
2018-07-09T04:39:15.739Z,16.39
2018-07-09T04:40:15.687Z,16.51
2018-07-09T04:41:15.655Z,16.50
2018-07-09T04:42:15.630Z,16.56
2018-07-09T04:43:15.633Z,16.61
2018-07-09T04:44:15.559Z,16.53
2018-07-09T04:45:15.545Z,16.66
2018-07-09T04:46:15.499Z,16.74
2018-07-09T04:47:15.458Z,16.79
2018-07-09T04:48:15.425Z,16.84
2018-07-09T04:49:15.392Z,16.94
2018-07-09T04:50:15.366Z,16.97
2018-07-09T04:51:15.370Z,16.96
2018-07-09T04:52:15.298Z,17.12
2018-07-09T04:53:15.265Z,17.14
2018-07-09T04:54:15.914Z,17.15
2018-07-09T04:55:15.201Z,17.20
2018-07-09T04:56:15.168Z,17.39
2018-07-09T04:57:15.134Z,17.45
2018-07-09T04:58:15.101Z,17.54
2018-07-09T04:59:15.076Z,17.59
2018-07-09T05:00:15.034Z,17.68
2018-07-09T05:01:15.005Z,17.74
2018-07-09T05:02:14.970Z,17.78
2018-07-09T05:03:14.939Z,17.83
2018-07-09T05:04:14.907Z,17.94
2018-07-09T05:05:14.874Z,17.85
2018-07-09T05:06:14.844Z,17.94
2018-07-09T05:07:14.809Z,18.05
2018-07-09T05:08:14.808Z,18.05
2018-07-09T05:09:14.747Z,18.10
2018-07-09T05:10:14.717Z,18.16
2018-07-09T05:11:14.682Z,18.23
2018-07-09T05:12:14.648Z,18.35
2018-07-09T05:13:14.619Z,18.41
2018-07-09T05:14:14.587Z,18.31
2018-07-09T05:15:14.571Z,18.35
2018-07-09T05:16:14.528Z,18.44
2018-07-09T05:17:14.491Z,18.40
2018-07-09T05:18:14.493Z,18.47
2018-07-09T05:19:14.433Z,18.52
2018-07-09T05:20:14.392Z,18.60
2018-07-09T05:21:14.368Z,18.65
2018-07-09T05:22:14.334Z,18.73
2018-07-09T05:23:14.596Z,18.80
2018-07-09T05:24:14.272Z,18.88
2018-07-09T05:25:14.231Z,18.96
2018-07-09T05:26:14.216Z,19.09
2018-07-09T05:27:14.170Z,19.16
2018-07-09T05:28:14.135Z,19.19
2018-07-09T05:29:14.110Z,19.26
2018-07-09T05:30:14.076Z,19.34
2018-07-09T05:31:14.048Z,19.41
2018-07-09T05:32:14.014Z,19.59
2018-07-09T05:33:14.005Z,19.55
2018-07-09T05:34:13.968Z,19.67
2018-07-09T05:35:13.924Z,19.76
2018-07-09T05:36:13.929Z,19.85
2018-07-09T05:37:13.866Z,19.92
2018-07-09T05:38:13.826Z,19.86
2018-07-09T05:39:13.792Z,19.91
2018-07-09T05:40:13.766Z,20.00
2018-07-09T05:41:13.733Z,20.10
2018-07-09T05:42:13.704Z,20.10
2018-07-09T05:43:13.673Z,20.21
2018-07-09T05:44:13.638Z,20.34
2018-07-09T05:45:13.604Z,20.34
2018-07-09T05:46:13.580Z,20.37
2018-07-09T05:47:13.552Z,20.34
2018-07-09T05:48:13.520Z,20.44
2018-07-09T05:49:13.488Z,20.52
2018-07-09T05:50:13.449Z,20.75
2018-07-09T05:51:13.420Z,20.87
2018-07-09T05:52:13.391Z,20.92
2018-07-09T05:53:13.368Z,20.96
2018-07-09T05:54:13.332Z,21.06
2018-07-09T05:55:13.301Z,21.14
2018-07-09T05:56:13.265Z,21.18
2018-07-09T05:57:13.237Z,21.29
2018-07-09T05:58:13.204Z,21.37
2018-07-09T05:59:13.178Z,21.39
2018-07-09T06:00:13.147Z,21.60
2018-07-09T06:01:13.124Z,21.48
2018-07-09T06:02:13.090Z,21.57
2018-07-09T06:03:13.057Z,21.69
2018-07-09T06:04:13.031Z,21.89
2018-07-09T06:05:12.995Z,21.95
2018-07-09T06:06:12.963Z,21.88
2018-07-09T06:07:12.933Z,21.96
2018-07-09T06:08:12.903Z,21.96
2018-07-09T06:09:12.878Z,22.15
2018-07-09T06:10:12.846Z,22.06
2018-07-09T06:11:12.889Z,22.17
2018-07-09T06:12:12.784Z,22.28
2018-07-09T06:13:12.767Z,22.25
2018-07-09T06:14:12.721Z,22.14
2018-07-09T06:15:12.695Z,22.26
2018-07-09T06:16:12.662Z,22.45
2018-07-09T06:17:12.628Z,22.44
2018-07-09T06:18:12.605Z,22.47
2018-07-09T06:19:12.642Z,22.48
2018-07-09T06:20:12.550Z,22.59
2018-07-09T06:21:12.512Z,22.68
2018-07-09T06:22:12.481Z,22.72
2018-07-09T06:23:12.463Z,22.73
2018-07-09T06:24:12.426Z,22.66
2018-07-09T06:25:12.395Z,22.70
2018-07-09T06:26:12.368Z,22.62
2018-07-09T06:27:12.335Z,22.68
2018-07-09T06:28:12.300Z,22.84
2018-07-09T06:29:12.281Z,22.91
2018-07-09T06:30:12.251Z,22.94
2018-07-09T06:31:12.217Z,23.10
2018-07-09T06:32:12.184Z,23.34
2018-07-09T06:33:12.158Z,23.24
2018-07-09T06:34:12.129Z,23.23
2018-07-09T06:35:12.100Z,23.39
2018-07-09T06:36:12.089Z,23.56
2018-07-09T06:37:12.040Z,23.69
2018-07-09T06:38:12.046Z,23.77
2018-07-09T06:39:11.982Z,23.88
2018-07-09T06:40:11.953Z,23.91
2018-07-09T06:41:12.561Z,23.77
2018-07-09T06:42:11.894Z,23.87
2018-07-09T06:43:11.865Z,23.88
2018-07-09T06:44:11.836Z,24.01
2018-07-09T06:45:11.802Z,23.96
2018-07-09T06:46:11.774Z,23.99
2018-07-09T06:47:11.745Z,24.21
2018-07-09T06:48:11.721Z,24.13
2018-07-09T06:49:11.699Z,24.20
2018-07-09T06:50:11.661Z,24.17
2018-07-09T06:51:11.634Z,24.32
2018-07-09T06:52:11.603Z,24.20
2018-07-09T06:53:11.574Z,24.38
2018-07-09T06:54:11.545Z,24.51
2018-07-09T06:55:11.538Z,24.28
2018-07-09T06:56:11.489Z,24.35
2018-07-09T06:57:11.463Z,24.43
2018-07-09T06:58:11.431Z,24.40
2018-07-09T06:59:11.401Z,24.61
2018-07-09T07:00:11.371Z,24.63
2018-07-09T07:01:11.346Z,24.77
2018-07-09T07:02:11.345Z,24.84
2018-07-09T07:03:11.296Z,24.84
2018-07-09T07:04:11.256Z,24.95
2018-07-09T07:05:11.232Z,24.98
2018-07-09T07:06:11.204Z,24.93
2018-07-09T07:07:11.177Z,25.14
2018-07-09T07:08:11.146Z,25.21
2018-07-09T07:09:11.238Z,25.21
2018-07-09T07:10:11.085Z,25.17
2018-07-09T07:11:11.063Z,25.25
2018-07-09T07:12:11.031Z,25.17
2018-07-09T07:13:11.002Z,25.40
2018-07-09T07:14:10.977Z,25.41
2018-07-09T07:15:10.948Z,25.44
2018-07-09T07:16:10.928Z,25.69
2018-07-09T07:17:10.895Z,25.73
2018-07-09T07:18:10.867Z,25.41
2018-07-09T07:19:10.834Z,25.51
2018-07-09T07:20:10.804Z,25.51
2018-07-09T07:21:10.786Z,25.50
2018-07-09T07:22:10.752Z,25.33
2018-07-09T07:23:10.732Z,25.48
2018-07-09T07:24:10.721Z,25.41
2018-07-09T07:25:10.667Z,25.53
2018-07-09T07:26:10.644Z,25.40
2018-07-09T07:27:10.618Z,25.43
2018-07-09T07:28:10.583Z,25.35
2018-07-09T07:29:10.658Z,25.44
2018-07-09T07:30:10.526Z,25.50
2018-07-09T07:31:10.511Z,25.54
2018-07-09T07:32:10.473Z,25.59
2018-07-09T07:33:10.502Z,25.70
2018-07-09T07:34:10.419Z,25.84
2018-07-09T07:35:10.393Z,26.03
2018-07-09T07:36:10.380Z,26.07
2018-07-09T07:37:10.334Z,26.03
2018-07-09T07:38:10.300Z,26.25
2018-07-09T07:39:10.286Z,26.34
2018-07-09T07:40:10.248Z,26.36
2018-07-09T07:41:10.221Z,26.41
2018-07-09T07:42:10.194Z,26.44
2018-07-09T07:43:10.166Z,26.28
2018-07-09T07:44:10.236Z,26.31
2018-07-09T07:45:10.121Z,26.23
2018-07-09T07:46:10.085Z,26.48
2018-07-09T07:47:10.054Z,26.43
2018-07-09T07:48:10.028Z,26.53
2018-07-09T07:49:09.999Z,26.62
2018-07-09T07:50:09.991Z,26.85
2018-07-09T07:51:09.942Z,26.90
2018-07-09T07:52:09.924Z,27.00
2018-07-09T07:53:09.890Z,27.10
2018-07-09T07:54:09.860Z,27.26
2018-07-09T07:55:09.836Z,27.17
2018-07-09T07:56:09.813Z,27.26
2018-07-09T07:57:09.781Z,27.35
2018-07-09T07:58:09.761Z,27.39
2018-07-09T07:59:09.729Z,27.45
2018-07-09T08:00:09.700Z,27.59
2018-07-09T08:01:09.708Z,27.58
2018-07-09T08:02:09.650Z,27.51
2018-07-09T08:03:09.624Z,27.26
2018-07-09T08:04:09.606Z,27.37
2018-07-09T08:05:09.569Z,27.17
2018-07-09T08:06:09.543Z,26.99
2018-07-09T08:07:09.519Z,27.10
2018-07-09T08:08:09.484Z,26.93
2018-07-09T08:09:09.458Z,27.17
2018-07-09T08:10:09.442Z,27.29
2018-07-09T08:11:11.673Z,27.22
2018-07-09T08:13:00.534Z,27.51
2018-07-09T08:13:27.997Z,27.59
2018-07-09T08:14:09.324Z,27.80
2018-07-09T08:15:09.305Z,28.07
2018-07-09T08:16:09.274Z,28.07
2018-07-09T08:17:09.249Z,28.02
2018-07-09T08:18:09.232Z,28.01
2018-07-09T08:19:09.195Z,27.93
2018-07-09T08:20:09.173Z,28.11
2018-07-09T08:21:09.167Z,28.10
2018-07-09T08:22:09.121Z,28.27
2018-07-09T08:23:09.094Z,28.30
2018-07-09T08:24:09.069Z,28.25
2018-07-09T08:25:09.111Z,28.30
2018-07-09T08:26:09.013Z,28.45
2018-07-09T08:27:08.991Z,28.32
2018-07-09T08:28:08.961Z,28.76
2018-07-09T08:29:08.955Z,28.76
2018-07-09T08:30:08.931Z,28.84
2018-07-09T08:31:08.933Z,28.67
2018-07-09T08:32:08.862Z,28.62
2018-07-09T08:33:08.835Z,28.81
2018-07-09T08:34:08.810Z,28.93
2018-07-09T08:35:08.813Z,29.01
2018-07-09T08:36:08.773Z,28.86
2018-07-09T08:37:08.732Z,29.02
2018-07-09T08:38:08.707Z,29.13
2018-07-09T08:39:08.684Z,29.36
2018-07-09T08:40:08.657Z,29.51
2018-07-09T08:41:08.633Z,29.49
2018-07-09T08:42:08.616Z,29.45
2018-07-09T08:43:08.585Z,29.68
2018-07-09T08:44:08.556Z,29.66
2018-07-09T08:45:08.537Z,29.78
2018-07-09T08:46:08.507Z,29.76
2018-07-09T08:47:08.501Z,29.95
2018-07-09T08:48:08.462Z,30.10
2018-07-09T08:49:08.432Z,30.13
2018-07-09T08:50:08.416Z,30.28
2018-07-09T08:51:08.382Z,29.65
2018-07-09T08:52:08.357Z,29.88
2018-07-09T08:53:08.339Z,30.08
2018-07-09T08:54:08.310Z,30.19
2018-07-09T08:55:08.284Z,30.16
2018-07-09T08:56:08.273Z,30.21
2018-07-09T08:57:08.236Z,30.13
2018-07-09T08:58:08.210Z,30.28
2018-07-09T08:59:08.190Z,30.34
2018-07-09T09:00:08.157Z,30.57
2018-07-09T09:01:08.132Z,30.70
2018-07-09T09:02:08.109Z,30.66
2018-07-09T09:03:08.087Z,30.81
2018-07-09T09:04:08.098Z,31.02
2018-07-09T09:05:08.041Z,31.29
2018-07-09T09:06:08.018Z,31.29
2018-07-09T09:07:07.995Z,31.28
2018-07-09T09:08:07.962Z,31.46
2018-07-09T09:09:07.938Z,31.58
2018-07-09T09:10:07.940Z,31.76
2018-07-09T09:11:07.896Z,31.66
2018-07-09T09:12:07.864Z,31.39
2018-07-09T09:13:07.844Z,31.31
2018-07-09T09:14:07.817Z,31.12
2018-07-09T09:15:07.793Z,31.02
2018-07-09T09:16:07.773Z,30.90
2018-07-09T09:17:07.747Z,31.21
2018-07-09T09:18:07.741Z,31.07
2018-07-09T09:19:07.698Z,31.24
2018-07-09T09:20:07.675Z,31.33
2018-07-09T09:21:07.646Z,30.94
2018-07-09T09:22:07.646Z,31.21
2018-07-09T09:23:07.609Z,31.29
2018-07-09T09:24:07.572Z,31.42
2018-07-09T09:25:07.550Z,31.76
2018-07-09T09:26:07.523Z,31.76
2018-07-09T09:27:07.499Z,31.46
2018-07-09T09:28:07.481Z,31.92
2018-07-09T09:29:07.454Z,32.14
2018-07-09T09:30:07.433Z,31.97
2018-07-09T09:31:07.461Z,32.08
2018-07-09T09:32:07.381Z,32.30
2018-07-09T09:33:07.364Z,31.80
2018-07-09T09:34:07.333Z,32.12
2018-07-09T09:35:07.307Z,32.30
2018-07-09T09:36:07.285Z,32.15
2018-07-09T09:37:07.263Z,32.49
2018-07-09T09:38:07.235Z,32.11
2018-07-09T09:39:07.225Z,31.90
2018-07-09T09:40:07.189Z,32.14
2018-07-09T09:41:07.165Z,31.76
2018-07-09T09:42:07.143Z,32.18
2018-07-09T09:43:07.163Z,32.16
2018-07-09T09:44:07.093Z,32.46
2018-07-09T09:45:07.364Z,32.43
2018-07-09T09:46:07.049Z,32.97
2018-07-09T09:47:07.030Z,33.32
2018-07-09T09:48:06.996Z,33.61
2018-07-09T09:49:06.972Z,33.57
2018-07-09T09:50:06.950Z,34.01
2018-07-09T09:51:06.932Z,34.38
2018-07-09T09:52:06.904Z,34.80
2018-07-09T09:53:06.884Z,34.85
2018-07-09T09:54:06.880Z,34.52
2018-07-09T09:55:06.878Z,34.42
2018-07-09T09:56:06.812Z,34.33
2018-07-09T09:57:06.785Z,34.39
2018-07-09T09:58:06.761Z,33.62
2018-07-09T09:59:06.743Z,33.09
2018-07-09T10:00:06.720Z,32.18
2018-07-09T10:01:06.710Z,32.12
2018-07-09T10:02:06.668Z,32.45
2018-07-09T10:03:06.646Z,33.05
2018-07-09T10:04:06.622Z,33.49
2018-07-09T10:05:06.596Z,34.06
2018-07-09T10:06:06.584Z,34.23
2018-07-09T10:07:06.546Z,34.74
2018-07-09T10:08:06.523Z,35.23
2018-07-09T10:09:06.499Z,34.93
2018-07-09T10:10:06.486Z,35.05
2018-07-09T10:11:06.454Z,35.22
2018-07-09T10:12:06.430Z,35.33
2018-07-09T10:13:06.406Z,35.30
2018-07-09T10:14:06.381Z,34.86
2018-07-09T10:15:06.357Z,34.40
2018-07-09T10:16:06.343Z,34.80
2018-07-09T10:17:06.317Z,34.83
2018-07-09T10:18:06.290Z,35.19
2018-07-09T10:19:06.271Z,35.55
2018-07-09T10:20:06.240Z,35.67
2018-07-09T10:21:06.238Z,35.10
2018-07-09T10:22:06.197Z,34.81
2018-07-09T10:23:06.273Z,34.86
2018-07-09T10:24:06.147Z,34.85
2018-07-09T10:25:06.138Z,35.08
2018-07-09T10:26:06.099Z,35.49
2018-07-09T10:27:06.073Z,35.07
2018-07-09T10:28:06.057Z,34.90
2018-07-09T10:29:06.035Z,34.96
2018-07-09T10:30:06.008Z,35.29
2018-07-09T10:31:05.993Z,35.29
2018-07-09T10:32:05.956Z,35.74
2018-07-09T10:33:05.937Z,36.04
2018-07-09T10:34:05.912Z,36.31
2018-07-09T10:35:05.896Z,36.64
2018-07-09T10:36:05.864Z,36.79
2018-07-09T10:37:05.837Z,36.46
2018-07-09T10:38:05.851Z,36.72
2018-07-09T10:39:05.795Z,36.46
2018-07-09T10:40:05.774Z,35.04
2018-07-09T10:41:05.852Z,33.87
2018-07-09T10:42:05.735Z,33.12
2018-07-09T10:43:05.701Z,33.00
2018-07-09T10:44:05.674Z,33.00
2018-07-09T10:45:05.656Z,32.71
2018-07-09T10:46:05.628Z,31.94
2018-07-09T10:47:05.647Z,31.89
2018-07-09T10:48:05.582Z,32.08
2018-07-09T10:49:05.557Z,31.81
2018-07-09T10:50:05.531Z,31.49
2018-07-09T10:51:05.537Z,31.10
2018-07-09T10:52:05.482Z,30.72
2018-07-09T10:53:05.465Z,30.08
2018-07-09T10:54:05.435Z,30.68
2018-07-09T10:55:05.411Z,31.42
2018-07-09T10:56:05.389Z,31.84
2018-07-09T10:57:05.399Z,31.97
2018-07-09T10:58:05.340Z,32.70
2018-07-09T10:59:05.322Z,33.34
2018-07-09T11:00:05.297Z,33.62
2018-07-09T11:01:05.264Z,33.45
2018-07-09T11:02:05.238Z,33.24
2018-07-09T11:03:05.217Z,33.90
2018-07-09T11:04:05.186Z,34.50
2018-07-09T11:05:05.165Z,34.70
2018-07-09T11:06:05.142Z,34.40
2018-07-09T11:07:05.116Z,33.80
2018-07-09T11:08:05.091Z,33.79
2018-07-09T11:09:05.069Z,34.01
2018-07-09T11:10:05.044Z,34.54
2018-07-09T11:11:05.482Z,34.73
2018-07-09T11:12:04.996Z,34.92
2018-07-09T11:13:04.974Z,35.00
2018-07-09T11:14:04.952Z,34.97
2018-07-09T11:15:04.935Z,34.96
2018-07-09T11:16:04.896Z,34.71
2018-07-09T11:17:04.879Z,34.75
2018-07-09T11:18:04.853Z,35.18
2018-07-09T11:19:04.829Z,35.17
2018-07-09T11:20:04.799Z,35.76
2018-07-09T11:21:04.786Z,36.04
2018-07-09T11:22:04.758Z,36.42
2018-07-09T11:23:04.744Z,36.14
2018-07-09T11:24:04.704Z,35.08
2018-07-09T11:25:04.684Z,34.21
2018-07-09T11:26:04.718Z,33.64
2018-07-09T11:27:04.666Z,32.95
2018-07-09T11:28:04.611Z,32.73
2018-07-09T11:29:04.588Z,32.21
2018-07-09T11:30:04.565Z,31.66
2018-07-09T11:31:04.541Z,31.28
2018-07-09T11:32:04.515Z,31.33
2018-07-09T11:33:04.488Z,31.22
2018-07-09T11:34:04.465Z,31.00
2018-07-09T11:35:04.448Z,31.05
2018-07-09T11:36:04.431Z,31.22
2018-07-09T11:37:04.390Z,31.22
2018-07-09T11:38:04.368Z,30.87
2018-07-09T11:39:04.341Z,30.77
2018-07-09T11:40:04.320Z,30.50
2018-07-09T11:41:04.290Z,30.08
2018-07-09T11:42:04.297Z,29.98
2018-07-09T11:43:04.247Z,29.81
2018-07-09T11:44:04.217Z,30.05
2018-07-09T11:45:04.204Z,30.32
2018-07-09T11:46:04.171Z,30.43
2018-07-09T11:47:04.141Z,30.94
2018-07-09T11:48:04.113Z,31.12
2018-07-09T11:49:04.092Z,30.78
2018-07-09T11:50:04.089Z,30.90
2018-07-09T11:51:04.052Z,30.92
2018-07-09T11:52:04.063Z,30.84
2018-07-09T11:53:03.998Z,30.65
2018-07-09T11:54:03.968Z,30.80
2018-07-09T11:55:03.937Z,31.12
2018-07-09T11:56:03.916Z,31.33
2018-07-09T11:57:03.889Z,31.40
2018-07-09T11:58:03.869Z,31.34
2018-07-09T11:59:03.837Z,31.27
2018-07-09T12:00:03.814Z,31.55
2018-07-09T12:01:03.796Z,31.76
2018-07-09T12:02:03.781Z,32.11
2018-07-09T12:03:03.741Z,31.90
2018-07-09T12:04:03.746Z,32.14
2018-07-09T12:05:03.692Z,32.31
2018-07-09T12:06:03.666Z,32.36
2018-07-09T12:07:03.636Z,32.30
2018-07-09T12:08:03.614Z,32.11
2018-07-09T12:09:03.593Z,32.60
2018-07-09T12:10:03.563Z,33.23
2018-07-09T12:11:03.545Z,34.23
2018-07-09T12:12:03.512Z,34.47
2018-07-09T12:13:03.490Z,34.81
2018-07-09T12:14:03.463Z,34.93
2018-07-09T12:15:03.443Z,35.02
2018-07-09T12:16:03.422Z,34.92
2018-07-09T12:17:03.390Z,35.18
2018-07-09T12:18:03.369Z,35.56
2018-07-09T12:19:03.344Z,35.88
2018-07-09T12:20:03.320Z,36.12
2018-07-09T12:21:03.295Z,35.76
2018-07-09T12:22:03.274Z,35.22
2018-07-09T12:23:03.248Z,35.60
2018-07-09T12:24:03.253Z,36.12
2018-07-09T12:25:03.198Z,35.92
2018-07-09T12:26:03.174Z,34.67
2018-07-09T12:27:03.151Z,34.75
2018-07-09T12:28:03.127Z,34.70
2018-07-09T12:29:03.150Z,35.27
2018-07-09T12:30:03.086Z,36.05
2018-07-09T12:31:03.634Z,37.15
2018-07-09T12:32:03.517Z,37.71
2018-07-09T12:33:03.005Z,37.10
2018-07-09T12:34:02.984Z,36.93
2018-07-09T12:35:02.961Z,36.45
2018-07-09T12:36:02.982Z,35.45
2018-07-09T12:37:02.925Z,35.08
2018-07-09T12:38:02.962Z,34.81
2018-07-09T12:39:02.867Z,34.42
2018-07-09T12:40:02.843Z,35.07
2018-07-09T12:41:02.816Z,34.78
2018-07-09T12:42:02.793Z,34.48
2018-07-09T12:43:02.822Z,34.60
2018-07-09T12:44:02.744Z,34.73
2018-07-09T12:45:02.722Z,34.42
2018-07-09T12:46:02.700Z,34.58
2018-07-09T12:47:02.675Z,33.98
2018-07-09T12:48:02.650Z,33.36
2018-07-09T12:49:02.641Z,32.85
2018-07-09T12:50:02.605Z,32.11
2018-07-09T12:51:02.576Z,32.15
2018-07-09T12:52:02.555Z,31.71